Time;durP1;ratioP1;P1;durP2;ratioP2;P2;SDS_P1;SDS_P2;PMS_P1;PMS_P2;Temp;Humidity;BMP_temperature;BMP_pressure;BME280_temperature;BME280_humidity;BME280_pressure;Samples;Min_cycle;Max_cycle;Signal;HPM_P1;HPM_P2
2022/07/03 00:00:11;;;;;;;1999.90;999.90;;;16.20;99.90;;;;;;5070305;28;20084;-78
2022/07/03 00:02:37;;;;;;;1999.90;999.90;;;16.20;99.90;;;;;;5067985;28;20501;-77
2022/07/03 00:05:03;;;;;;;1999.90;999.90;;;16.10;99.90;;;;;;5063032;28;20040;-77
2022/07/03 00:07:30;;;;;;;1999.90;999.90;;;16.10;99.90;;;;;;5053177;28;20032;-77
2022/07/03 00:09:56;;;;;;;1999.90;999.90;;;16.00;99.90;;;;;;5096749;28;20029;-78
2022/07/03 00:12:21;;;;;;;1999.90;999.90;;;15.90;99.90;;;;;;5067307;28;20521;-77
2022/07/03 00:14:47;;;;;;;1999.90;999.90;;;15.80;99.90;;;;;;5057977;28;20040;-78
2022/07/03 00:17:13;;;;;;;1999.90;999.90;;;15.80;99.90;;;;;;5083832;28;20044;-78
2022/07/03 00:19:39;;;;;;;1999.90;999.90;;;15.70;99.90;;;;;;5051621;28;20051;-77
2022/07/03 00:22:07;;;;;;;1999.90;999.90;;;15.60;99.90;;;;;;5070180;28;20040;-77
2022/07/03 00:24:42;;;;;;;1999.90;999.90;;;15.60;99.90;;;;;;5073066;28;20074;-77
2022/07/03 00:27:09;;;;;;;1999.90;999.90;;;15.50;99.90;;;;;;5071811;28;20121;-77
2022/07/03 00:29:41;;;;;;;1999.90;999.90;;;15.50;99.90;;;;;;5079882;28;20042;-77
2022/07/03 00:32:09;;;;;;;1999.90;999.90;;;15.40;99.90;;;;;;5072209;28;20048;-77
2022/07/03 00:34:36;;;;;;;1999.90;999.90;;;15.30;99.90;;;;;;5104414;28;20499;-77
2022/07/03 00:37:05;;;;;;;1999.90;999.90;;;15.30;99.90;;;;;;5070970;28;20040;-78
2022/07/03 00:39:32;;;;;;;1999.90;999.90;;;15.30;99.90;;;;;;5069893;28;20055;-77
2022/07/03 00:42:03;;;;;;;1999.90;999.90;;;15.20;99.90;;;;;;5073838;28;20051;-77
2022/07/03 00:44:30;;;;;;;1999.90;999.90;;;15.20;99.90;;;;;;5081785;28;20101;-78
2022/07/03 00:46:56;;;;;;;1999.90;999.90;;;15.10;99.90;;;;;;5057114;28;20049;-78
2022/07/03 00:49:23;;;;;;;1999.90;999.90;;;15.10;99.90;;;;;;5107061;28;20051;-77
2022/07/03 00:51:53;;;;;;;1999.90;999.90;;;15.00;99.90;;;;;;5079245;28;20225;-77
2022/07/03 00:54:21;;;;;;;1999.90;999.90;;;15.00;99.90;;;;;;5100467;28;20050;-78
2022/07/03 00:56:52;;;;;;;1999.90;999.90;;;14.90;99.90;;;;;;5107043;28;20489;-77
2022/07/03 00:59:18;;;;;;;1999.90;999.90;;;14.90;99.90;;;;;;5107465;28;20122;-77
2022/07/03 01:01:45;;;;;;;1999.90;999.90;;;14.90;99.90;;;;;;5090599;28;20391;-77
2022/07/03 01:04:29;;;;;;;1999.90;999.90;;;14.90;99.90;;;;;;5073452;28;20177;-77
2022/07/03 01:07:05;;;;;;;1999.90;999.90;;;14.80;99.90;;;;;;5070128;28;20040;-77
2022/07/03 01:09:55;;;;;;;1999.90;999.90;;;14.80;99.90;;;;;;5056328;28;20090;-77
2022/07/03 01:12:38;;;;;;;1999.90;999.90;;;14.70;99.90;;;;;;5094284;28;20101;-77
2022/07/03 01:15:18;;;;;;;1999.90;999.90;;;14.60;99.90;;;;;;5099613;28;20051;-77
2022/07/03 01:17:53;;;;;;;1999.90;999.90;;;14.60;99.90;;;;;;5051860;28;20043;-77
2022/07/03 01:20:24;;;;;;;1999.90;999.90;;;14.60;99.90;;;;;;5101630;28;20481;-78
2022/07/03 01:22:57;;;;;;;1999.90;999.90;;;14.50;99.90;;;;;;5104936;28;20409;-77
2022/07/03 01:25:37;;;;;;;1999.90;999.90;;;14.50;99.90;;;;;;5056810;28;20085;-77
2022/07/03 01:28:12;;;;;;;1999.90;999.90;;;14.50;99.90;;;;;;5072455;28;20048;-77
2022/07/03 01:31:00;;;;;;;1999.90;999.90;;;14.40;99.90;;;;;;5073069;28;20063;-77
2022/07/03 01:33:30;;;;;;;1999.90;999.90;;;14.40;99.90;;;;;;5077766;28;20051;-77
2022/07/03 01:36:01;;;;;;;1999.90;999.90;;;14.30;99.90;;;;;;5073142;28;20036;-77
2022/07/03 01:38:29;;;;;;;1999.90;999.90;;;14.30;99.90;;;;;;5106849;28;20062;-77
2022/07/03 01:40:56;;;;;;;1999.90;999.90;;;14.30;99.90;;;;;;5101034;28;20514;-77
2022/07/03 01:43:33;;;;;;;1999.90;999.90;;;14.30;99.90;;;;;;5055560;28;20036;-77
2022/07/03 01:46:01;;;;;;;1999.90;999.90;;;14.20;99.90;;;;;;5089106;28;20071;-77
2022/07/03 01:48:29;;;;;;;1999.90;999.90;;;14.20;99.90;;;;;;5053311;28;20409;-77
2022/07/03 01:50:56;;;;;;;1999.90;999.90;;;14.10;99.90;;;;;;5073459;28;20168;-77
2022/07/03 01:53:25;;;;;;;1999.90;999.90;;;14.10;99.90;;;;;;5103052;28;20040;-78
2022/07/03 01:55:56;;;;;;;1999.90;999.90;;;14.10;99.90;;;;;;5072747;28;20035;-77
2022/07/03 01:58:22;;;;;;;1999.90;999.90;;;14.20;99.90;;;;;;5103306;28;20113;-77
2022/07/03 02:00:56;;;;;;;1999.90;999.90;;;14.30;99.90;;;;;;5067220;28;20044;-77
2022/07/03 02:03:28;;;;;;;1999.90;999.90;;;14.30;99.90;;;;;;5081578;28;20055;-77
2022/07/03 02:06:36;;;;;;;1999.90;999.90;;;14.30;99.90;;;;;;5068886;28;20082;-77
2022/07/03 02:09:07;;;;;;;1999.90;999.90;;;14.30;99.90;;;;;;5047122;28;20162;-77
2022/07/03 02:11:36;;;;;;;1999.90;999.90;;;14.30;99.90;;;;;;5103567;28;20040;-77
2022/07/03 02:14:10;;;;;;;1999.90;999.90;;;14.30;99.90;;;;;;5071923;28;20512;-77
2022/07/03 02:17:10;;;;;;;1999.90;999.90;;;14.20;99.90;;;;;;5068565;28;20047;-77
2022/07/03 02:20:00;;;;;;;1999.90;999.90;;;14.20;99.90;;;;;;5060587;28;20051;-78
2022/07/03 02:22:44;;;;;;;1999.90;999.90;;;14.10;99.90;;;;;;5092773;28;20444;-77
2022/07/03 02:25:23;;;;;;;1999.90;999.90;;;14.00;99.90;;;;;;5077293;28;20440;-77
2022/07/03 02:27:56;;;;;;;1999.90;999.90;;;14.00;99.90;;;;;;5093568;28;20043;-78
2022/07/03 02:30:24;;;;;;;1999.90;999.90;;;14.00;99.90;;;;;;5072441;28;20040;-77
2022/07/03 02:32:51;;;;;;;1999.90;999.90;;;14.00;99.90;;;;;;5088691;28;20069;-77
2022/07/03 02:35:21;;;;;;;1999.90;999.90;;;13.90;99.90;;;;;;5071516;28;20042;-77
2022/07/03 02:38:03;;;;;;;1999.90;999.90;;;13.80;99.90;;;;;;5058395;28;20129;-77
2022/07/03 02:40:32;;;;;;;1999.90;999.90;;;13.70;99.90;;;;;;5055872;28;20636;-77
2022/07/03 02:43:28;;;;;;;1999.90;999.90;;;13.70;99.90;;;;;;5098126;28;20461;-77
2022/07/03 02:47:00;;;;;;;1999.90;999.90;;;13.60;99.90;;;;;;5095264;28;20458;-77
2022/07/03 02:49:14;;;;;;;1999.90;999.90;;;13.50;99.90;;;;;;5083457;28;20048;-77
2022/07/03 02:51:46;;;;;;;1999.90;999.90;;;13.50;99.90;;;;;;5071484;28;20050;-77
2022/07/03 02:54:14;;;;;;;1999.90;999.90;;;13.50;99.90;;;;;;5104905;28;20047;-77
2022/07/03 02:56:57;;;;;;;1999.90;999.90;;;13.40;99.90;;;;;;5071125;28;20047;-77
2022/07/03 02:59:33;;;;;;;1999.90;999.90;;;13.40;99.90;;;;;;5066808;28;20044;-77
2022/07/03 03:02:11;;;;;;;1999.90;999.90;;;13.40;99.90;;;;;;5076174;28;20046;-77
2022/07/03 03:04:40;;;;;;;1999.90;999.90;;;13.30;99.90;;;;;;5087244;28;20443;-77
2022/07/03 03:07:14;;;;;;;1999.90;999.90;;;13.30;99.90;;;;;;5070350;28;20035;-77
2022/07/03 03:09:43;;;;;;;1999.90;999.90;;;13.30;99.90;;;;;;5069570;28;20082;-77
2022/07/03 03:12:11;;;;;;;1999.90;999.90;;;13.30;99.90;;;;;;5070934;28;20062;-77
2022/07/03 03:14:41;;;;;;;1999.90;999.90;;;13.20;99.90;;;;;;5065717;28;20418;-77
2022/07/03 03:17:08;;;;;;;1999.90;999.90;;;13.20;99.90;;;;;;5076015;28;20517;-77
2022/07/03 03:19:43;;;;;;;1999.90;999.90;;;13.20;99.90;;;;;;5095253;28;20043;-77
2022/07/03 03:22:39;;;;;;;1999.90;999.90;;;13.20;99.90;;;;;;5071253;28;20169;-77
2022/07/03 03:25:05;;;;;;;1999.90;999.90;;;13.20;99.90;;;;;;5087042;28;20044;-77
2022/07/03 03:27:31;;;;;;;1999.90;999.90;;;13.30;99.90;;;;;;5054006;28;20128;-77
2022/07/03 03:29:58;;;;;;;1999.90;999.90;;;13.30;99.90;;;;;;5050748;28;20484;-77
2022/07/03 03:32:25;;;;;;;1999.90;999.90;;;13.30;99.90;;;;;;5095264;28;20039;-77
2022/07/03 03:34:51;;;;;;;1999.90;999.90;;;13.40;99.90;;;;;;5104998;28;20091;-77
2022/07/03 03:37:17;;;;;;;1999.90;999.90;;;13.40;99.90;;;;;;5045935;28;20505;-77
2022/07/03 03:39:43;;;;;;;1999.90;999.90;;;13.40;99.90;;;;;;5053928;28;20036;-77
2022/07/03 03:42:08;;;;;;;1999.90;999.90;;;13.40;99.90;;;;;;5070586;28;20055;-77
2022/07/03 03:44:35;;;;;;;1999.90;999.90;;;13.40;99.90;;;;;;5084915;28;20118;-78
2022/07/03 03:47:01;;;;;;;1999.90;999.90;;;13.50;99.90;;;;;;5070347;28;20039;-77
2022/07/03 03:49:27;;;;;;;1999.90;999.90;;;13.50;99.90;;;;;;5103467;28;20048;-77
2022/07/03 03:51:53;;;;;;;1999.90;999.90;;;13.50;99.90;;;;;;5086538;28;20040;-78
2022/07/03 03:54:19;;;;;;;1999.90;999.90;;;13.50;99.90;;;;;;5070344;28;20051;-77
2022/07/03 03:56:44;;;;;;;1999.90;999.90;;;13.50;99.90;;;;;;5087920;28;20076;-77
2022/07/03 03:59:10;;;;;;;1999.90;999.90;;;13.40;99.90;;;;;;5070073;28;20082;-77
2022/07/03 04:01:35;;;;;;;1999.90;999.90;;;13.40;99.90;;;;;;5061270;28;20047;-77
2022/07/03 04:04:01;;;;;;;1999.90;999.90;;;13.30;99.90;;;;;;5069520;28;20050;-77
2022/07/03 04:06:27;;;;;;;1999.90;999.90;;;13.30;99.90;;;;;;5070570;28;20032;-77
2022/07/03 04:08:52;;;;;;;1999.90;999.90;;;13.30;99.90;;;;;;5052374;28;20036;-77
2022/07/03 04:11:18;;;;;;;1999.90;999.90;;;13.40;99.90;;;;;;5053545;28;20073;-77
2022/07/03 04:13:45;;;;;;;1999.90;999.90;;;13.40;99.90;;;;;;5054800;28;20044;-77
2022/07/03 04:16:11;;;;;;;1999.90;999.90;;;13.50;99.90;;;;;;5095582;28;20480;-77
2022/07/03 04:18:37;;;;;;;1999.90;999.90;;;13.60;99.90;;;;;;5061196;28;20127;-78
2022/07/03 04:21:03;;;;;;;1999.90;999.90;;;13.70;99.90;;;;;;5065454;28;20130;-78
2022/07/03 04:23:29;;;;;;;1999.90;999.90;;;13.80;99.90;;;;;;5070355;28;20040;-77
2022/07/03 04:25:55;;;;;;;1999.90;999.90;;;13.80;99.90;;;;;;5052307;28;20066;-78
2022/07/03 04:28:21;;;;;;;1999.90;999.90;;;13.90;99.90;;;;;;5070418;28;20502;-78
2022/07/03 04:30:46;;;;;;;1999.90;999.90;;;13.90;99.90;;;;;;5070059;28;20040;-78
2022/07/03 04:33:12;;;;;;;1999.90;999.90;;;14.00;99.90;;;;;;5103894;28;20059;-77
2022/07/03 04:35:58;;;;;;;1999.90;999.90;;;14.10;99.90;;;;;;5067717;28;20044;-77
2022/07/03 04:38:23;;;;;;;1999.90;999.90;;;14.10;99.90;;;;;;5061542;28;20049;-77
2022/07/03 04:41:04;;;;;;;1999.90;999.90;;;14.10;99.90;;;;;;5007490;28;20152;-77
2022/07/03 04:43:29;;;;;;;1999.90;999.90;;;14.50;99.90;;;;;;5017571;28;20140;-77
2022/07/03 04:45:55;;;;;;;1999.90;999.90;;;14.80;99.90;;;;;;5025520;28;20061;-78
2022/07/03 04:48:21;;;;;;;1999.90;999.90;;;15.00;99.90;;;;;;4990894;28;20106;-77
2022/07/03 04:50:46;;;;;;;1999.90;999.90;;;15.10;99.90;;;;;;5007907;28;20494;-77
2022/07/03 04:53:14;;;;;;;1999.90;999.90;;;15.20;99.90;;;;;;4997628;28;20054;-77
2022/07/03 04:55:40;;;;;;;1999.90;999.90;;;15.40;99.90;;;;;;4978153;28;20100;-78
2022/07/03 04:58:05;;;;;;;1999.90;999.90;;;15.50;99.90;;;;;;5004950;28;20410;-78
2022/07/03 05:00:31;;;;;;;1999.90;999.90;;;15.60;99.90;;;;;;4989671;28;20045;-78
2022/07/03 05:02:57;;;;;;;1999.90;999.90;;;15.70;99.90;;;;;;5017167;28;20103;-78
2022/07/03 05:05:22;;;;;;;1999.90;999.90;;;15.80;99.90;;;;;;5008715;28;20507;-78
2022/07/03 05:07:48;;;;;;;1999.90;999.90;;;16.10;99.90;;;;;;4992642;28;20125;-77
2022/07/03 05:10:14;;;;;;;1999.90;999.90;;;16.30;99.90;;;;;;5010106;28;20133;-78
2022/07/03 05:12:39;;;;;;;1999.90;999.90;;;16.60;99.90;;;;;;4991172;28;20037;-78
2022/07/03 05:15:05;;;;;;;1999.90;999.90;;;16.90;99.90;;;;;;5008759;28;20053;-78
2022/07/03 05:17:33;;;;;;;1999.90;999.90;;;17.20;99.90;;;;;;5030827;28;20047;-78
2022/07/03 05:22:42;;;;;;;1999.90;999.90;;;18.50;99.90;;;;;;5073320;28;20074;-78
2022/07/03 05:25:08;;;;;;;1999.90;999.90;;;19.40;99.90;;;;;;5066400;28;20516;-78
2022/07/03 05:27:37;;;;;;;1999.90;999.90;;;19.80;99.90;;;;;;5066299;28;20143;-78
2022/07/03 05:30:04;;;;;;;1999.90;999.90;;;19.80;99.90;;;;;;5073364;28;20047;-78
2022/07/03 05:32:30;;;;;;;1999.90;999.90;;;19.60;99.90;;;;;;5084916;28;20560;-78
2022/07/03 05:34:56;;;;;;;1999.90;999.90;;;19.40;99.90;;;;;;5069513;28;20123;-78
2022/07/03 05:37:21;;;;;;;1999.90;999.90;;;19.20;99.90;;;;;;5054617;28;20044;-78
2022/07/03 05:39:47;;;;;;;1999.90;999.90;;;19.20;99.90;;;;;;5073464;28;20058;-78
2022/07/03 05:42:15;;;;;;;1999.90;999.90;;;19.40;99.90;;;;;;5069366;28;20536;-79
2022/07/03 05:44:49;;;;;;;1999.90;999.90;;;19.40;99.90;;;;;;5055888;28;20141;-78
2022/07/03 05:47:16;;;;;;;1999.90;999.90;;;19.50;99.90;;;;;;5102166;28;20131;-78
2022/07/03 05:49:41;;;;;;;1999.90;999.90;;;19.40;99.90;;;;;;5072102;28;20119;-78
2022/07/03 05:52:10;;;;;;;1999.90;999.90;;;19.30;99.90;;;;;;5065862;28;20032;-78
2022/07/03 05:54:50;;;;;;;1999.90;999.90;;;19.30;99.90;;;;;;5027966;28;20363;-78
2022/07/03 05:57:16;;;;;;;1999.90;999.90;;;19.20;99.90;;;;;;5020667;28;20691;-78
2022/07/03 05:59:42;;;;;;;1999.90;999.90;;;19.20;99.90;;;;;;5025196;28;20053;-78
2022/07/03 06:02:07;;;;;;;1999.90;999.90;;;19.20;99.90;;;;;;5011722;28;20049;-78
2022/07/03 06:04:33;;;;;;;1999.90;999.90;;;19.40;99.90;;;;;;4993476;28;20138;-79
2022/07/03 06:07:16;;;;;;;1999.90;999.90;;;19.90;99.90;;;;;;4949526;29;20039;-79
2022/07/03 06:09:43;;;;;;;1999.90;999.90;;;20.20;99.90;;;;;;4932807;29;20047;-78
2022/07/03 06:12:08;;;;;;;1999.90;999.90;;;20.30;99.90;;;;;;4918004;29;20081;-78
2022/07/03 06:14:34;;;;;;;1999.90;999.90;;;20.30;99.90;;;;;;4931334;29;20130;-78
2022/07/03 06:17:00;;;;;;;1999.90;999.90;;;20.20;99.90;;;;;;4937760;28;20043;-79
2022/07/03 06:19:25;;;;;;;1999.90;999.90;;;20.30;99.90;;;;;;4948304;29;20075;-79
2022/07/03 06:21:51;;;;;;;1999.90;999.90;;;20.90;99.90;;;;;;4934025;29;20402;-79
2022/07/03 06:24:17;;;;;;;1999.90;999.90;;;21.80;99.90;;;;;;4932972;29;20542;-79
2022/07/03 06:26:44;;;;;;;1999.90;999.90;;;22.20;99.90;;;;;;4945961;28;20094;-79
2022/07/03 06:29:13;;;;;;;1999.90;999.90;;;22.70;99.90;;;;;;4941373;28;20055;-79
2022/07/03 06:31:41;;;;;;;1999.90;999.90;;;23.10;99.90;;;;;;4945200;28;20041;-79
2022/07/03 06:34:15;;;;;;;1999.90;999.90;;;23.30;99.90;;;;;;4970628;28;20049;-78
2022/07/03 06:36:41;;;;;;;1999.90;999.90;;;22.90;99.90;;;;;;5007080;28;20041;-78
2022/07/03 06:39:07;;;;;;;1999.90;999.90;;;22.30;99.90;;;;;;4990409;28;20498;-79
2022/07/03 06:41:32;;;;;;;1999.90;999.90;;;22.00;99.90;;;;;;5007638;28;20168;-78
2022/07/03 06:43:58;;;;;;;1999.90;999.90;;;21.80;99.90;;;;;;5019857;28;20102;-78
2022/07/03 06:46:23;;;;;;;1999.90;999.90;;;21.40;99.90;;;;;;5065607;28;20418;-79
2022/07/03 06:48:49;;;;;;;1999.90;999.90;;;20.90;99.90;;;;;;5070282;28;20037;-79
2022/07/03 06:51:14;;;;;;;1999.90;999.90;;;20.60;99.90;;;;;;5070000;28;20484;-79
2022/07/03 06:53:40;;;;;;;1999.90;999.90;;;20.50;99.90;;;;;;5071346;28;20039;-79
2022/07/03 06:56:06;;;;;;;1999.90;999.90;;;21.20;99.90;;;;;;5095085;28;20094;-79
2022/07/03 06:58:31;;;;;;;1999.90;999.90;;;21.70;99.90;;;;;;5066809;28;20405;-79
2022/07/03 07:00:57;;;;;;;1999.90;999.90;;;22.70;99.90;;;;;;5071767;28;20063;-79
2022/07/03 07:03:25;;;;;;;1999.90;999.90;;;23.20;99.90;;;;;;5087220;28;20489;-79
2022/07/03 07:05:54;;;;;;;1999.90;999.90;;;23.40;99.90;;;;;;5067091;28;20044;-79
2022/07/03 07:08:20;;;;;;;1999.90;999.90;;;23.60;99.90;;;;;;5079042;28;20398;-79
2022/07/03 07:10:45;;;;;;;1999.90;999.90;;;23.00;99.90;;;;;;5053726;28;20040;-79
2022/07/03 07:13:11;;;;;;;1999.90;999.90;;;22.30;99.90;;;;;;5078519;28;20051;-79
2022/07/03 07:15:37;;;;;;;1999.90;999.90;;;21.70;99.90;;;;;;5071103;28;20058;-78
2022/07/03 07:18:02;;;;;;;1999.90;999.90;;;21.40;99.90;;;;;;5099880;28;20047;-79
2022/07/03 07:20:28;;;;;;;1999.90;999.90;;;21.10;99.90;;;;;;5066363;28;20074;-77
2022/07/03 07:22:53;;;;;;;1999.90;999.90;;;21.00;99.90;;;;;;5070179;28;20164;-79
2022/07/03 07:25:20;;;;;;;1999.90;999.90;;;20.90;99.90;;;;;;5074154;28;20487;-79
2022/07/03 07:27:45;;;;;;;1999.90;999.90;;;21.00;99.90;;;;;;5059776;28;20040;-78
2022/07/03 07:30:11;;;;;;;1999.90;999.90;;;21.10;99.90;;;;;;5072966;28;20039;-79
2022/07/03 07:32:37;;;;;;;1999.90;999.90;;;21.70;99.90;;;;;;5077937;28;20036;-79
2022/07/03 07:35:03;;;;;;;1999.90;999.90;;;22.70;99.90;;;;;;5098440;28;20065;-79
2022/07/03 07:37:29;;;;;;;1999.90;999.90;;;23.60;99.90;;;;;;5087893;28;20051;-79
2022/07/03 07:39:54;;;;;;;1999.90;999.90;;;24.20;99.90;;;;;;5086834;28;20070;-78
2022/07/03 07:42:20;;;;;;;1999.90;999.90;;;24.30;98.00;;;;;;5082014;28;20131;-79
2022/07/03 07:44:45;;;;;;;1999.90;999.90;;;24.60;97.10;;;;;;5086084;28;20040;-79
2022/07/03 07:47:11;;;;;;;1999.90;999.90;;;25.00;97.60;;;;;;5070503;28;20548;-79
2022/07/03 07:49:36;;;;;;;1999.90;999.90;;;25.60;97.50;;;;;;5085940;28;20036;-80
2022/07/03 07:52:02;;;;;;;1999.90;999.90;;;26.10;95.80;;;;;;5086646;28;20429;-79
2022/07/03 07:54:29;;;;;;;1999.90;999.90;;;26.20;93.10;;;;;;5070595;28;20050;-79
2022/07/03 07:56:54;;;;;;;1999.90;999.90;;;26.20;92.50;;;;;;5057673;28;20085;-79
2022/07/03 07:59:20;;;;;;;1999.90;999.90;;;26.10;93.00;;;;;;5087541;28;20052;-79
2022/07/03 08:07:14;;;;;;;1999.90;999.90;;;25.90;83.60;;;;;;5084208;28;20176;-79
2022/07/03 08:09:40;;;;;;;1999.90;999.90;;;25.70;83.50;;;;;;5086976;28;20040;-79
2022/07/03 08:12:05;;;;;;;1999.90;999.90;;;25.90;83.70;;;;;;5094465;28;20052;-79
2022/07/03 08:14:31;;;;;;;1999.90;999.90;;;26.10;86.00;;;;;;5071525;28;20548;-79
2022/07/03 08:16:56;;;;;;;1999.90;999.90;;;26.10;83.00;;;;;;5070281;28;20115;-79
2022/07/03 08:19:23;;;;;;;1999.90;999.90;;;26.10;83.00;;;;;;5040774;28;20451;-80
2022/07/03 08:21:49;;;;;;;1999.90;999.90;;;26.20;80.30;;;;;;5083072;28;20524;-79
2022/07/03 08:24:16;;;;;;;1999.90;999.90;;;26.30;79.60;;;;;;5068320;28;20370;-79
2022/07/03 08:26:41;;;;;;;1999.90;999.90;;;26.40;73.70;;;;;;5086907;28;20079;-79
2022/07/03 08:29:07;;;;;;;1999.90;999.90;;;26.20;75.50;;;;;;5048723;28;20048;-79
2022/07/03 08:31:33;;;;;;;1999.90;999.90;;;26.20;78.40;;;;;;5078585;28;20769;-79
2022/07/03 08:33:58;;;;;;;1999.90;999.90;;;26.60;77.10;;;;;;5087252;28;20035;-79
2022/07/03 08:36:24;;;;;;;1999.90;999.90;;;26.90;74.40;;;;;;5080190;28;20440;-79
2022/07/03 08:38:50;;;;;;;1999.90;999.90;;;26.90;74.80;;;;;;5062860;28;20032;-79
2022/07/03 08:41:17;;;;;;;1999.90;999.90;;;26.90;69.60;;;;;;5090757;28;20056;-79
2022/07/03 08:43:43;;;;;;;1999.90;999.90;;;27.00;71.80;;;;;;5076425;28;20084;-79
2022/07/03 08:46:11;;;;;;;1999.90;999.90;;;27.10;70.70;;;;;;5057755;28;20041;-80
2022/07/03 08:48:37;;;;;;;1999.90;999.90;;;27.20;70.70;;;;;;5060250;28;20453;-79
2022/07/03 08:51:03;;;;;;;1999.90;999.90;;;27.20;71.00;;;;;;5076421;28;20471;-80
2022/07/03 08:53:29;;;;;;;1999.90;999.90;;;27.20;69.60;;;;;;5070373;28;20037;-80
2022/07/03 08:55:55;;;;;;;1999.90;999.90;;;27.20;70.20;;;;;;5047038;28;20183;-79
2022/07/03 08:58:28;;;;;;;1999.90;999.90;;;27.00;68.80;;;;;;5053525;28;20131;-79
2022/07/03 09:00:53;;;;;;;;;;;27.00;68.20;;;;;;5059500;28;20044;-79
2022/07/03 09:03:22;;;;;;;1999.90;999.90;;;26.80;66.50;;;;;;5063264;28;19920;-80
2022/07/03 09:05:48;;;;;;;1999.90;999.90;;;26.70;68.50;;;;;;5065140;28;20051;-80
2022/07/03 09:08:16;;;;;;;1999.90;999.90;;;26.80;70.00;;;;;;5067180;28;20036;-80
2022/07/03 09:10:44;;;;;;;1999.90;999.90;;;26.90;69.90;;;;;;5035881;28;20052;-80
2022/07/03 09:13:11;;;;;;;1999.90;999.90;;;27.00;68.10;;;;;;5027672;28;20071;-79
2022/07/03 09:15:36;;;;;;;1999.90;999.90;;;27.00;68.40;;;;;;5048376;28;20052;-79
2022/07/03 09:18:26;;;;;;;1999.90;999.90;;;27.00;67.40;;;;;;5046262;28;20041;-79
2022/07/03 09:21:02;;;;;;;1999.90;999.90;;;27.20;69.70;;;;;;5043671;28;20077;-79
2022/07/03 09:23:39;;;;;;;1999.90;999.90;;;27.20;67.50;;;;;;5025733;28;20060;-79
2022/07/03 09:26:06;;;;;;;1999.90;999.90;;;27.40;69.50;;;;;;5038112;28;20057;-79
2022/07/03 09:28:48;;;;;;;1999.90;999.90;;;27.60;68.50;;;;;;4989992;28;20494;-79
2022/07/03 09:31:16;;;;;;;1999.90;999.90;;;27.60;66.80;;;;;;5040961;28;20057;-79
2022/07/03 09:33:55;;;;;;;1999.90;999.90;;;27.20;66.60;;;;;;5011328;28;20573;-79
2022/07/03 09:36:23;;;;;;;1999.90;999.90;;;27.10;65.90;;;;;;5027513;28;20045;-79
2022/07/03 09:38:48;;;;;;;1999.90;999.90;;;26.50;66.20;;;;;;5044037;28;20563;-79
2022/07/03 09:41:14;;;;;;;1999.90;999.90;;;26.10;68.30;;;;;;5041172;28;20064;-79
2022/07/03 09:43:43;;;;;;;1999.90;999.90;;;26.10;69.80;;;;;;5028818;28;20482;-79
2022/07/03 09:46:10;;;;;;;1999.90;999.90;;;26.10;68.30;;;;;;5039451;28;20065;-79
2022/07/03 09:48:41;;;;;;;1999.90;999.90;;;25.60;68.80;;;;;;5021555;28;20056;-79
2022/07/03 09:51:15;;;;;;;1999.90;999.90;;;24.90;68.00;;;;;;5042578;28;20056;-78
2022/07/03 09:53:44;;;;;;;1999.90;999.90;;;24.30;69.70;;;;;;5009487;28;20041;-79
2022/07/03 09:56:09;;;;;;;1999.90;999.90;;;23.80;71.80;;;;;;5027306;28;20137;-78
2022/07/03 09:58:39;;;;;;;1999.90;999.90;;;23.50;72.70;;;;;;5051315;28;20124;-80
2022/07/03 10:01:18;;;;;;;1999.90;999.90;;;23.60;75.00;;;;;;5042564;28;20044;-79
2022/07/03 10:03:44;;;;;;;1999.90;999.90;;;24.20;74.70;;;;;;5071474;28;20043;-78
2022/07/03 10:06:10;;;;;;;1999.90;999.90;;;24.40;74.20;;;;;;5044258;28;20038;-79
2022/07/03 10:08:37;;;;;;;1999.90;999.90;;;24.40;73.20;;;;;;5062751;28;20048;-78
2022/07/03 10:11:04;;;;;;;1999.90;999.90;;;24.50;74.40;;;;;;5055490;28;20430;-78
2022/07/03 10:13:30;;;;;;;1999.90;999.90;;;24.90;74.50;;;;;;5042607;28;20075;-79
2022/07/03 10:15:57;;;;;;;1999.90;999.90;;;25.20;72.30;;;;;;5077876;28;20053;-78
2022/07/03 10:18:31;;;;;;;1999.90;999.90;;;25.20;73.10;;;;;;5080221;28;20068;-78
2022/07/03 10:20:59;;;;;;;1999.90;999.90;;;24.80;71.70;;;;;;5043194;28;20122;-78
2022/07/03 10:23:26;;;;;;;1999.90;999.90;;;24.30;71.70;;;;;;5079090;28;20447;-79
2022/07/03 10:25:53;;;;;;;1999.90;999.90;;;23.80;72.70;;;;;;5041438;28;20103;-78
2022/07/03 10:28:19;;;;;;;1999.90;999.90;;;23.60;75.10;;;;;;5032047;28;20049;-78
2022/07/03 10:30:47;;;;;;;1999.90;999.90;;;23.90;77.70;;;;;;5081959;28;20069;-80
2022/07/03 10:33:13;;;;;;;1999.90;999.90;;;24.50;77.20;;;;;;5062616;28;20041;-79
2022/07/03 10:35:47;;;;;;;1999.90;999.90;;;24.90;75.70;;;;;;5080702;28;20136;-79
2022/07/03 10:38:42;;;;;;;1999.90;999.90;;;25.50;76.30;;;;;;5041591;28;20049;-79
2022/07/03 10:46:57;;;;;;;1999.90;999.90;;;26.30;73.10;;;;;;5048060;28;20501;-78
2022/07/03 10:49:23;;;;;;;1999.90;999.90;;;26.60;71.90;;;;;;5061024;28;20029;-80
2022/07/03 10:51:54;;;;;;;1999.90;999.90;;;26.90;72.30;;;;;;5081512;28;20048;-78
2022/07/03 10:54:22;;;;;;;1999.90;999.90;;;27.10;71.70;;;;;;5047464;28;20044;-78
2022/07/03 10:56:57;;;;;;;1999.90;999.90;;;27.20;70.50;;;;;;5046976;28;20397;-79
2022/07/03 10:59:43;;;;;;;1999.90;999.90;;;27.20;66.60;;;;;;5033375;28;20099;-78
2022/07/03 11:02:47;;;;;;;1999.90;999.90;;;26.90;69.00;;;;;;5030782;28;20079;-79
2022/07/03 11:05:19;;;;;;;1999.90;999.90;;;26.90;71.60;;;;;;5038801;28;20044;-78
2022/07/03 11:07:51;;;;;;;1999.90;999.90;;;26.80;70.90;;;;;;5047675;28;20040;-79
2022/07/03 11:10:16;;;;;;;1999.90;999.90;;;26.60;70.10;;;;;;5033298;28;20052;-79
2022/07/03 11:12:57;;;;;;;1999.90;999.90;;;26.50;69.60;;;;;;5045519;28;20471;-78
2022/07/03 11:15:32;;;;;;;1999.90;999.90;;;26.20;68.80;;;;;;5075693;28;20056;-78
2022/07/03 11:18:37;;;;;;;1999.90;999.90;;;26.20;72.00;;;;;;5074366;28;20040;-78
2022/07/03 11:21:13;;;;;;;1999.90;999.90;;;26.40;69.50;;;;;;4987583;28;20673;-78
2022/07/03 11:24:16;;;;;;;1999.90;999.90;;;26.10;66.80;;;;;;4985348;28;20080;-78
2022/07/03 11:26:42;;;;;;;1999.90;999.90;;;25.80;68.30;;;;;;5001945;28;20589;-79
2022/07/03 11:29:25;;;;;;;1999.90;999.90;;;25.50;69.80;;;;;;5002995;28;20045;-78
2022/07/03 11:31:50;;;;;;;1999.90;999.90;;;25.10;69.90;;;;;;4989453;28;20037;-78
2022/07/03 11:34:19;;;;;;;1999.90;999.90;;;25.10;73.30;;;;;;4986688;28;20045;-78
2022/07/03 11:36:45;;;;;;;1999.90;999.90;;;25.40;73.90;;;;;;4976017;28;20049;-78
2022/07/03 11:39:13;;;;;;;1999.90;999.90;;;25.70;73.00;;;;;;4986016;28;20470;-79
2022/07/03 11:41:38;;;;;;;1999.90;999.90;;;25.70;70.90;;;;;;4983279;28;20057;-78
2022/07/03 11:44:06;;;;;;;1999.90;999.90;;;25.30;70.10;;;;;;4996194;28;20397;-79
2022/07/03 11:46:36;;;;;;;1999.90;999.90;;;24.70;71.10;;;;;;5002935;28;20049;-78
2022/07/03 11:49:06;;;;;;;1999.90;999.90;;;24.30;73.60;;;;;;4992833;28;20112;-79
2022/07/03 11:51:32;;;;;;;1999.90;999.90;;;24.50;75.80;;;;;;5018577;28;20055;-78
2022/07/03 11:53:58;;;;;;;1999.90;999.90;;;24.70;75.60;;;;;;5051058;28;20033;-76
2022/07/03 11:56:23;;;;;;;1999.90;999.90;;;24.70;74.80;;;;;;5068812;28;20052;-77
2022/07/03 11:58:52;;;;;;;1999.90;999.90;;;24.80;75.50;;;;;;5036007;28;20406;-78
2022/07/03 12:01:26;;;;;;;1999.90;999.90;;;25.20;75.20;;;;;;5038531;28;20036;-77
2022/07/03 12:04:14;;;;;;;1999.90;999.90;;;25.40;75.80;;;;;;5050504;28;20064;-77
2022/07/03 12:06:48;;;;;;;1999.90;999.90;;;25.40;76.00;;;;;;5041596;28;20041;-77
2022/07/03 12:09:35;;;;;;;1999.90;999.90;;;25.50;75.40;;;;;;5043449;28;20207;-78
2022/07/03 12:12:08;;;;;;;1999.90;999.90;;;25.50;75.10;;;;;;5032757;28;20033;-78
2022/07/03 12:14:46;;;;;;;1999.90;999.90;;;25.70;74.00;;;;;;5031698;28;20044;-78
2022/07/03 12:17:16;;;;;;;1999.90;999.90;;;25.80;77.20;;;;;;5056531;28;20460;-78
2022/07/03 12:20:01;;;;;;;1999.90;999.90;;;25.50;74.10;;;;;;5046385;28;20080;-77
2022/07/03 12:22:33;;;;;;;1999.90;999.90;;;24.80;75.40;;;;;;5042058;28;20043;-77
2022/07/03 12:25:12;;;;;;;1999.90;999.90;;;24.20;75.40;;;;;;5030081;28;20124;-76